Time;durP1;ratioP1;P1;durP2;ratioP2;P2;SDS_P1;SDS_P2;PMS_P1;PMS_P2;Temp;Humidity;BMP_temperature;BMP_pressure;BME280_temperature;BME280_humidity;BME280_pressure;Samples;Min_cycle;Max_cycle;Signal;HPM_P1;HPM_P2
2022/03/26 00:03:15;;;;;;;7.70;4.65;;;17.20;27.90;19.70;94635.00;;;;10343132;28;48280;-67
2022/03/26 00:08:16;;;;;;;7.75;4.93;;;17.30;27.90;19.70;94635.00;;;;10359022;28;45323;-67
2022/03/26 00:13:17;;;;;;;6.57;4.40;;;17.30;27.90;19.70;94627.00;;;;10342502;28;47951;-67
2022/03/26 00:18:18;;;;;;;6.68;4.78;;;17.30;27.90;19.70;94615.00;;;;10360252;28;45480;-67
2022/03/26 00:23:18;;;;;;;7.22;4.90;;;17.20;27.90;19.70;94627.00;;;;10342387;28;47044;-67
2022/03/26 00:28:19;;;;;;;7.43;4.88;;;17.20;27.90;19.60;94615.00;;;;10358728;28;45624;-67
2022/03/26 00:33:20;;;;;;;6.97;4.78;;;17.20;27.90;19.60;94609.00;;;;10357688;28;45395;-67
2022/03/26 00:38:21;;;;;;;7.75;5.15;;;17.20;27.90;19.60;94601.00;;;;10358372;28;45311;-67
2022/03/26 00:43:21;;;;;;;6.82;4.80;;;17.10;27.80;19.60;94601.00;;;;10356982;28;45433;-67
2022/03/26 00:48:23;;;;;;;7.05;5.03;;;17.20;27.80;19.60;94602.00;;;;10341294;28;46981;-67
2022/03/26 00:53:24;;;;;;;7.32;5.20;;;17.10;27.80;19.50;94610.00;;;;10357947;28;47057;-67
2022/03/26 00:58:25;;;;;;;7.43;4.82;;;17.10;27.70;19.50;94607.00;;;;10341044;28;47089;-67
2022/03/26 01:03:26;;;;;;;7.25;4.80;;;17.10;27.70;19.50;94605.00;;;;10357517;28;45537;-67
2022/03/26 01:08:27;;;;;;;8.05;5.25;;;17.10;27.60;19.50;94585.00;;;;10356960;28;46296;-67
2022/03/26 01:13:28;;;;;;;7.03;5.13;;;17.00;27.70;19.50;94593.00;;;;10340784;28;47043;-67
2022/03/26 01:18:29;;;;;;;8.07;5.28;;;17.00;27.50;19.50;94579.00;;;;10357018;28;46114;-68
2022/03/26 01:23:30;;;;;;;8.27;5.10;;;17.00;27.60;19.50;94583.00;;;;10340500;28;47180;-67
2022/03/26 01:28:30;;;;;;;7.95;5.38;;;17.00;27.50;19.50;94571.00;;;;10356430;28;47031;-67
2022/03/26 01:33:31;;;;;;;7.00;4.55;;;17.00;27.60;19.40;94584.00;;;;10339754;28;47258;-68
2022/03/26 01:38:32;;;;;;;7.97;5.00;;;17.00;27.60;19.40;94584.00;;;;10356566;28;45150;-67
2022/03/26 01:43:32;;;;;;;7.63;5.00;;;17.00;27.70;19.40;94582.00;;;;10357763;28;46169;-67
2022/03/26 01:48:33;;;;;;;8.23;5.00;;;16.90;27.70;19.40;94586.00;;;;10355916;28;46275;-67
2022/03/26 01:53:34;;;;;;;7.38;4.72;;;16.90;27.60;19.40;94586.00;;;;10355957;28;45617;-67
2022/03/26 01:58:34;;;;;;;7.05;4.80;;;16.90;27.70;19.40;94581.00;;;;10337427;28;47499;-67
2022/03/26 02:03:36;;;;;;;7.20;4.75;;;16.90;27.80;19.40;94584.00;;;;10334068;28;48289;-67
2022/03/26 02:08:37;;;;;;;9.00;4.70;;;16.90;27.80;19.30;94569.00;;;;10338686;28;47223;-68
2022/03/26 02:13:55;;;;;;;7.68;4.72;;;16.90;27.80;19.30;94584.00;;;;10356799;28;45411;-67
2022/03/26 02:18:56;;;;;;;9.18;4.78;;;16.90;27.80;19.30;94574.00;;;;10354543;28;46530;-67
2022/03/26 02:23:56;;;;;;;6.85;4.53;;;16.90;27.70;19.30;94577.00;;;;10338262;28;46660;-67
2022/03/26 02:29:07;;;;;;;7.82;4.85;;;16.90;27.80;19.30;94576.00;;;;10338261;28;47197;-67
2022/03/26 02:34:08;;;;;;;7.72;4.70;;;16.90;27.70;19.30;94578.00;;;;10354841;28;47032;-67
2022/03/26 02:39:09;;;;;;;7.68;4.60;;;16.90;27.70;19.30;94571.00;;;;10354761;28;46187;-68
2022/03/26 02:44:09;;;;;;;8.40;4.68;;;16.80;27.60;19.30;94568.00;;;;10337752;28;47259;-67
2022/03/26 02:49:10;;;;;;;8.30;5.00;;;16.80;27.60;19.20;94575.00;;;;10337320;28;47924;-67
2022/03/26 02:54:18;;;;;;;8.68;4.88;;;16.80;27.60;19.30;94576.00;;;;10353823;28;46884;-67
2022/03/26 02:59:19;;;;;;;7.20;5.28;;;16.80;27.50;19.20;94567.00;;;;10338325;28;47113;-67
2022/03/26 03:04:21;;;;;;;9.30;5.43;;;16.80;27.50;19.20;94573.00;;;;10353893;28;45234;-68
2022/03/26 03:09:21;;;;;;;7.60;4.95;;;16.80;27.50;19.20;94569.00;;;;10353887;28;45584;-68
2022/03/26 03:14:22;;;;;;;6.78;5.07;;;16.80;27.50;19.20;94573.00;;;;10353446;28;45346;-67
2022/03/26 03:19:23;;;;;;;7.80;5.10;;;16.70;27.50;19.20;94571.00;;;;10353117;28;45175;-68
2022/03/26 03:24:23;;;;;;;9.25;5.47;;;16.70;27.50;19.20;94565.00;;;;10355075;28;45469;-67
2022/03/26 03:29:24;;;;;;;7.80;5.03;;;16.70;27.50;19.20;94556.00;;;;10336272;28;47274;-68
2022/03/26 03:34:25;;;;;;;8.07;5.47;;;16.70;27.50;19.20;94567.00;;;;10335886;28;47731;-67
2022/03/26 03:39:26;;;;;;;8.50;4.95;;;16.70;27.50;19.20;94568.00;;;;10336314;28;46996;-68
2022/03/26 03:44:26;;;;;;;8.55;5.20;;;16.70;27.50;19.20;94557.00;;;;10354109;28;45164;-68
2022/03/26 03:49:29;;;;;;;8.40;5.28;;;16.70;27.50;19.10;94560.00;;;;10335719;28;47454;-68
2022/03/26 03:54:30;;;;;;;8.25;5.10;;;16.70;27.50;19.10;94558.00;;;;10336201;28;48144;-68
2022/03/26 03:59:30;;;;;;;8.02;5.00;;;16.70;27.50;19.10;94565.00;;;;10335713;28;47180;-67
2022/03/26 04:04:31;;;;;;;9.65;5.45;;;16.60;27.50;19.10;94563.00;;;;10352332;28;45265;-67
2022/03/26 04:09:32;;;;;;;8.98;5.80;;;16.60;27.50;19.10;94569.00;;;;10335483;28;47088;-69
2022/03/26 04:14:34;;;;;;;9.20;5.60;;;16.60;27.50;19.00;94566.00;;;;10351849;28;47444;-68
2022/03/26 04:19:35;;;;;;;9.68;5.60;;;16.60;27.50;19.00;94574.00;;;;10339767;28;47139;-67
2022/03/26 04:24:36;;;;;;;10.40;6.20;;;16.60;27.50;19.00;94582.00;;;;10342422;28;48400;-67
2022/03/26 04:29:37;;;;;;;8.65;5.90;;;16.60;27.50;19.00;94571.00;;;;10358568;28;47890;-68
2022/03/26 04:34:38;;;;;;;9.35;6.20;;;16.60;27.50;19.00;94575.00;;;;10341802;28;48259;-68
2022/03/26 04:39:39;;;;;;;9.00;5.75;;;16.50;27.50;19.00;94576.00;;;;10358366;28;45426;-68
2022/03/26 04:44:39;;;;;;;8.75;6.03;;;16.50;27.50;19.00;94594.00;;;;10358252;28;45547;-67
2022/03/26 04:49:40;;;;;;;10.27;6.07;;;16.50;27.40;18.90;94592.00;;;;10358064;28;45615;-67
2022/03/26 04:54:42;;;;;;;9.57;6.32;;;16.50;27.40;18.90;94598.00;;;;10357756;28;45398;-67
2022/03/26 04:59:46;;;;;;;10.93;6.70;;;16.50;27.40;18.90;94591.00;;;;10357730;28;45386;-68
2022/03/26 05:04:47;;;;;;;7.88;5.45;;;16.50;27.50;19.00;94589.00;;;;10341094;28;47031;-67
2022/03/26 05:09:47;;;;;;;8.75;5.75;;;16.50;27.50;19.10;94603.00;;;;10357210;28;45432;-67
2022/03/26 05:14:48;;;;;;;8.63;5.47;;;16.70;27.50;19.10;94605.00;;;;10357640;28;45377;-67
2022/03/26 05:19:49;;;;;;;8.40;5.93;;;16.70;27.40;19.20;94607.00;;;;10357508;28;45302;-68
2022/03/26 05:24:49;;;;;;;9.32;6.18;;;16.80;27.30;19.20;94602.00;;;;10356957;28;45444;-67
2022/03/26 05:29:50;;;;;;;9.82;6.18;;;16.80;27.20;19.30;94600.00;;;;10339640;28;47204;-68
2022/03/26 05:34:51;;;;;;;8.55;5.82;;;16.90;27.30;19.30;94602.00;;;;10356396;28;46695;-68
2022/03/26 05:39:51;;;;;;;10.10;5.90;;;16.90;27.30;19.30;94597.00;;;;10340113;28;46625;-68
2022/03/26 05:44:52;;;;;;;8.93;5.82;;;16.90;27.20;19.30;94623.00;;;;10339810;28;47418;-68
2022/03/26 05:49:53;;;;;;;8.38;5.72;;;16.90;27.20;19.40;94614.00;;;;10355889;28;47245;-68
2022/03/26 05:54:54;;;;;;;8.55;5.50;;;17.00;27.10;19.40;94619.00;;;;10356383;28;46459;-68
2022/03/26 05:59:54;;;;;;;8.93;5.57;;;17.00;27.10;19.40;94618.00;;;;10339298;28;47200;-68
2022/03/26 06:04:55;;;;;;;7.78;5.70;;;17.10;27.10;19.40;94633.00;;;;10356375;28;45339;-68
2022/03/26 06:09:56;;;;;;;8.10;5.40;;;17.10;27.10;19.50;94637.00;;;;10355455;28;45617;-67
2022/03/26 06:14:56;;;;;;;8.57;5.28;;;17.10;27.00;19.50;94634.00;;;;10339229;28;47420;-67
2022/03/26 06:19:57;;;;;;;10.02;5.95;;;17.10;27.00;19.50;94636.00;;;;10355604;28;45403;-67
2022/03/26 06:24:58;;;;;;;8.85;5.70;;;17.10;27.00;19.50;94650.00;;;;10338526;28;46935;-67
2022/03/26 06:29:58;;;;;;;8.55;5.72;;;17.10;27.10;19.50;94648.00;;;;10338209;28;47290;-68
2022/03/26 06:34:59;;;;;;;9.23;5.78;;;17.10;27.10;19.50;94652.00;;;;10354466;28;45358;-67
2022/03/26 06:40:00;;;;;;;11.18;5.80;;;17.10;27.10;19.50;94638.00;;;;10337721;28;47354;-67
2022/03/26 06:45:00;;;;;;;10.00;6.38;;;17.20;27.10;19.60;94646.00;;;;10337171;28;47110;-68
2022/03/26 06:50:01;;;;;;;11.85;6.40;;;17.20;27.10;19.60;94648.00;;;;10337817;28;47981;-67
2022/03/26 06:55:04;;;;;;;9.88;6.18;;;17.20;27.10;19.60;94656.00;;;;10354285;28;45422;-67
2022/03/26 07:00:05;;;;;;;9.85;5.88;;;17.20;27.10;19.60;94645.00;;;;10354025;28;45314;-67
2022/03/26 07:05:07;;;;;;;9.18;5.70;;;17.20;27.10;19.60;94655.00;;;;10337388;28;47210;-67
2022/03/26 07:10:08;;;;;;;10.55;6.10;;;17.20;27.10;19.60;94640.00;;;;10353507;28;47278;-67
2022/03/26 07:15:10;;;;;;;11.50;5.90;;;17.20;27.10;19.60;94665.00;;;;10353416;28;46084;-67
2022/03/26 07:20:12;;;;;;;10.32;6.10;;;17.20;27.20;19.60;94662.00;;;;10336730;28;47669;-68
2022/03/26 07:25:12;;;;;;;9.98;6.25;;;17.20;27.10;19.60;94654.00;;;;10336518;28;47151;-67
2022/03/26 07:30:13;;;;;;;10.07;6.30;;;17.20;27.20;19.60;94662.00;;;;10354607;28;45043;-68
2022/03/26 07:35:14;;;;;;;8.68;5.82;;;17.20;27.20;19.60;94662.00;;;;10335424;28;48265;-67
2022/03/26 07:40:15;;;;;;;9.27;5.55;;;17.20;27.30;19.70;94658.00;;;;10336386;28;48052;-67
2022/03/26 07:45:15;;;;;;;9.80;6.22;;;17.20;27.30;19.70;94668.00;;;;10352919;28;46757;-69
2022/03/26 07:50:16;;;;;;;9.10;5.78;;;17.30;27.40;19.70;94674.00;;;;10352778;28;45516;-67
2022/03/26 07:55:17;;;;;;;9.07;5.57;;;17.30;27.40;19.70;94672.00;;;;10358152;28;45251;-68
2022/03/26 08:00:18;;;;;;;10.70;6.05;;;17.30;27.40;19.80;94674.00;;;;10359820;28;45685;-67
2022/03/26 08:05:19;;;;;;;10.52;6.15;;;17.30;27.50;19.70;94670.00;;;;10342445;28;47031;-64
2022/03/26 08:10:20;;;;;;;10.05;5.63;;;17.30;27.60;19.80;94700.00;;;;10359764;28;47043;-69
2022/03/26 08:15:20;;;;;;;10.50;5.57;;;17.40;27.70;19.80;94698.00;;;;10344061;28;48091;-70
2022/03/26 08:20:21;;;;;;;8.85;6.13;;;17.40;27.70;19.80;94706.00;;;;10360503;28;45243;-70
2022/03/26 08:30:41;;;;;;;10.75;5.80;;;17.40;27.80;19.90;94700.00;;;;10360766;28;45838;-70
2022/03/26 08:35:42;;;;;;;7.95;5.05;;;17.50;27.90;19.90;94697.00;;;;10401839;22;46966;-69
2022/03/26 08:40:43;;;;;;;8.38;5.15;;;17.50;27.80;20.00;94702.00;;;;10399598;28;45147;-65
2022/03/26 08:45:44;;;;;;;11.98;6.60;;;17.60;27.80;20.00;94689.00;;;;10419415;28;46584;-70
2022/03/26 08:50:46;;;;;;;9.43;5.40;;;17.60;27.80;20.10;94697.00;;;;10419029;28;47911;-64
2022/03/26 08:55:47;;;;;;;8.55;5.60;;;17.70;27.90;20.10;94705.00;;;;10439630;28;45519;-64
2022/03/26 09:00:51;;;;;;;10.63;5.90;;;17.70;28.00;20.10;94697.00;;;;10457283;28;45246;-63
2022/03/26 09:05:52;;;;;;;9.02;5.50;;;17.70;27.90;20.10;94693.00;;;;10454628;28;45307;-65
2022/03/26 09:10:53;;;;;;;8.43;4.85;;;17.80;27.90;20.20;94697.00;;;;10450040;28;45240;-62
2022/03/26 09:15:54;;;;;;;13.30;5.03;;;17.80;28.20;20.20;94701.00;;;;10454491;28;47836;-63
2022/03/26 09:20:55;;;;;;;6.93;4.43;;;17.80;28.00;20.30;94685.00;;;;10482263;28;46334;-65
2022/03/26 09:25:56;;;;;;;7.75;3.30;;;17.90;28.40;20.20;94693.00;;;;10480461;28;45503;-69
2022/03/26 09:30:56;;;;;;;4.75;3.10;;;17.80;28.60;20.20;94676.00;;;;10480066;28;47911;-64
2022/03/26 09:35:57;;;;;;;4.78;2.80;;;17.80;28.80;20.30;94695.00;;;;10409583;28;47210;-63
2022/03/26 09:40:58;;;;;;;8.70;3.28;;;17.80;28.60;20.30;94695.00;;;;10396002;28;46675;-64
2022/03/26 09:45:59;;;;;;;7.22;3.42;;;17.80;28.60;20.30;94682.00;;;;10438315;28;46022;-64
2022/03/26 09:51:02;;;;;;;7.35;4.28;;;17.80;28.60;20.30;94681.00;;;;10481399;28;45401;-64
2022/03/26 09:56:03;;;;;;;6.70;4.10;;;17.90;28.10;20.30;94680.00;;;;10473527;28;46298;-64
2022/03/26 10:01:04;;;;;;;6.50;3.45;;;17.90;28.40;20.40;94690.00;;;;10437908;28;47097;-64
2022/03/26 10:06:09;;;;;;;4.90;3.17;;;17.90;28.30;20.40;94696.00;;;;10436270;28;46032;-64
2022/03/26 10:11:21;;;;;;;4.63;2.92;;;18.00;28.30;20.50;94697.00;;;;10415078;28;45349;-64
2022/03/26 10:16:22;;;;;;;5.20;2.85;;;18.00;28.30;20.50;94670.00;;;;10396533;28;45471;-64
2022/03/26 10:21:23;;;;;;;4.22;2.83;;;18.10;28.30;20.50;94671.00;;;;10395560;28;45369;-64
2022/03/26 10:26:26;;;;;;;5.15;2.53;;;18.10;28.30;20.50;94676.00;;;;10396213;28;45905;-64
2022/03/26 10:36:57;;;;;;;3.60;2.45;;;18.10;28.30;20.60;94688.00;;;;10409207;28;45219;-64
2022/03/26 10:41:58;;;;;;;4.40;2.40;;;18.10;28.30;20.60;94674.00;;;;10420519;28;46986;-64
2022/03/26 10:47:03;;;;;;;3.95;2.47;;;18.10;28.30;20.60;94672.00;;;;10415579;28;47263;-64
2022/03/26 10:52:16;;;;;;;5.32;2.47;;;18.10;28.30;20.60;94677.00;;;;10419501;28;47139;-63
2022/03/26 10:57:24;;;;;;;3.95;2.20;;;18.10;28.30;20.60;94693.00;;;;10435282;28;45331;-64
2022/03/26 11:02:25;;;;;;;3.75;2.38;;;18.20;28.30;20.60;94668.00;;;;10435428;28;47288;-64
2022/03/26 11:07:26;;;;;;;3.67;2.13;;;18.20;28.30;20.70;94655.00;;;;10440413;28;47234;-64
2022/03/26 11:12:27;;;;;;;3.05;2.00;;;18.20;28.30;20.70;94665.00;;;;10435909;28;45193;-64
2022/03/26 11:17:55;;;;;;;3.00;2.10;;;18.20;28.30;20.70;94677.00;;;;10435403;28;45367;-65
2022/03/26 11:23:11;;;;;;;3.28;2.20;;;18.20;28.30;20.70;94681.00;;;;10452143;28;47054;-64
2022/03/26 11:29:03;;;;;;;2.85;1.88;;;18.20;28.30;20.70;94668.00;;;;10434206;28;47154;-64
2022/03/26 11:34:05;;;;;;;3.33;2.20;;;18.20;28.30;20.70;94673.00;;;;10451424;28;46662;-64
2022/03/26 11:39:17;;;;;;;2.67;1.92;;;18.30;28.30;20.70;94669.00;;;;10451163;28;47102;-64
2022/03/26 11:44:17;;;;;;;3.08;1.90;;;18.30;28.30;20.80;94655.00;;;;10434721;28;47762;-63
2022/03/26 11:55:16;;;;;;;2.15;1.52;;;18.30;28.30;20.80;94658.00;;;;10391846;28;45425;-64
2022/03/26 12:00:18;;;;;;;2.88;1.98;;;18.30;28.30;20.80;94650.00;;;;10450870;28;47009;-64
2022/03/26 12:10:43;;;;;;;3.15;2.30;;;18.40;28.30;20.90;94647.00;;;;10448709;28;45257;-64
2022/03/26 12:15:59;;;;;;;2.53;1.85;;;18.30;28.30;20.90;94623.00;;;;10433242;28;47408;-64
2022/03/26 12:21:19;;;;;;;2.92;1.85;;;18.40;28.30;20.90;94626.00;;;;10415198;28;47625;-64
2022/03/26 12:26:22;;;;;;;2.65;1.77;;;18.40;28.30;20.90;94638.00;;;;10405179;28;47219;-64
2022/03/26 12:31:28;;;;;;;3.08;1.83;;;18.40;28.20;20.90;94635.00;;;;10414569;28;45409;-64
2022/03/26 12:36:34;;;;;;;2.97;1.83;;;18.40;28.20;20.90;94620.00;;;;10403533;28;47752;-64
2022/03/26 12:41:36;;;;;;;3.50;2.03;;;18.50;28.30;20.90;94632.00;;;;10412499;28;45139;-64
2022/03/26 12:46:39;;;;;;;3.10;2.30;;;18.40;28.20;21.00;94612.00;;;;10399731;28;45294;-64
2022/03/26 12:51:40;;;;;;;3.47;2.00;;;18.50;28.30;21.00;94620.00;;;;10414916;28;46290;-64
2022/03/26 12:56:41;;;;;;;2.90;1.60;;;18.50;28.30;21.00;94629.00;;;;10399088;28;45227;-64
2022/03/26 13:01:43;;;;;;;3.17;2.00;;;18.50;28.20;21.00;94623.00;;;;10418647;28;45238;-64
2022/03/26 13:06:44;;;;;;;2.55;1.70;;;18.50;28.30;21.00;94621.00;;;;10405652;28;46947;-64
2022/03/26 13:11:51;;;;;;;2.80;1.80;;;18.50;28.20;21.00;94609.00;;;;10422710;28;47218;-64
2022/03/26 13:16:53;;;;;;;2.97;1.80;;;18.50;28.20;21.00;94612.00;;;;10455671;28;47123;-64
2022/03/26 13:21:55;;;;;;;3.63;1.85;;;18.60;28.20;21.10;94602.00;;;;10455942;28;45687;-64
2022/03/26 13:27:01;;;;;;;2.90;1.83;;;18.60;28.20;21.10;94618.00;;;;10438683;28;47322;-64
2022/03/26 13:32:04;;;;;;;4.10;2.65;;;18.60;28.20;21.00;94590.00;;;;10455740;28;47005;-64
2022/03/26 13:37:15;;;;;;;3.90;2.65;;;18.60;28.30;20.90;94595.00;;;;10438005;28;47076;-63
2022/03/26 13:42:18;;;;;;;4.00;2.50;;;18.50;28.40;20.90;94581.00;;;;10455421;28;46981;-63
2022/03/26 13:47:31;;;;;;;5.32;2.75;;;18.40;28.30;20.90;94565.00;;;;10438811;28;46517;-63
2022/03/26 13:52:38;;;;;;;3.58;2.40;;;18.40;28.40;20.90;94586.00;;;;10438366;28;47783;-64
2022/03/26 13:57:40;;;;;;;6.35;2.80;;;18.40;28.70;20.80;94571.00;;;;10424311;28;47206;-63
2022/03/26 14:02:41;;;;;;;3.65;2.50;;;18.40;28.40;20.80;94573.00;;;;10413081;28;46766;-63
2022/03/26 14:07:42;;;;;;;4.22;2.83;;;18.40;28.50;20.80;94576.00;;;;10400837;28;45290;-63
2022/03/26 14:12:42;;;;;;;5.68;2.75;;;18.40;28.50;20.80;94567.00;;;;10421473;28;46303;-63
2022/03/26 14:17:43;;;;;;;3.80;2.60;;;18.30;28.50;20.90;94564.00;;;;10453635;28;47263;-63
2022/03/26 14:22:43;;;;;;;4.88;2.47;;;18.30;28.60;20.80;94570.00;;;;10433941;28;47293;-65
2022/03/26 14:27:44;;;;;;;4.68;2.67;;;18.30;28.70;20.80;94577.00;;;;10433841;28;47364;-63
2022/03/26 14:32:46;;;;;;;3.47;2.63;;;18.30;28.60;20.80;94568.00;;;;10425731;28;48339;-63
2022/03/26 14:37:47;;;;;;;4.30;2.60;;;18.30;28.60;20.80;94571.00;;;;10417915;28;45114;-63
2022/03/26 14:42:48;;;;;;;4.72;2.47;;;18.30;28.70;20.80;94563.00;;;;10413166;28;46054;-64
2022/03/26 14:47:49;;;;;;;4.72;2.42;;;18.30;28.70;20.80;94585.00;;;;10432237;28;45390;-63
2022/03/26 14:52:52;;;;;;;3.85;2.47;;;18.30;28.70;20.80;94568.00;;;;10435794;28;45279;-63
2022/03/26 14:57:56;;;;;;;3.13;2.30;;;18.30;28.60;20.70;94567.00;;;;10451352;28;47506;-62
2022/03/26 15:02:57;;;;;;;3.00;2.25;;;18.20;28.60;20.80;94563.00;;;;10451274;28;46631;-64
2022/03/26 15:07:58;;;;;;;8.35;2.78;;;18.30;28.50;20.80;94568.00;;;;10418527;28;47035;-64
2022/03/26 15:12:59;;;;;;;3.92;3.00;;;18.30;28.30;20.80;94557.00;;;;10435352;28;45390;-64
2022/03/26 15:18:00;;;;;;;4.10;3.08;;;18.30;28.20;20.80;94567.00;;;;10450389;28;45228;-64
2022/03/26 15:23:02;;;;;;;5.00;3.22;;;18.30;28.20;20.80;94548.00;;;;10432754;28;48394;-65
2022/03/26 15:28:03;;;;;;;5.50;3.10;;;18.30;28.20;20.80;94552.00;;;;10431967;28;45344;-67
2022/03/26 15:33:04;;;;;;;4.60;3.08;;;18.30;28.20;20.80;94555.00;;;;10415964;28;46982;-64
2022/03/26 15:38:05;;;;;;;5.28;3.30;;;18.30;28.10;20.80;94570.00;;;;10432507;28;45247;-65
2022/03/26 15:43:05;;;;;;;5.25;3.30;;;18.30;28.10;20.80;94567.00;;;;10433986;28;45207;-65
2022/03/26 15:48:06;;;;;;;5.85;3.17;;;18.30;28.10;20.70;94551.00;;;;10431301;28;47154;-65
2022/03/26 15:53:07;;;;;;;5.75;3.47;;;18.30;28.10;20.80;94556.00;;;;10432476;28;47416;-65
2022/03/26 15:58:09;;;;;;;5.28;2.88;;;18.30;28.30;20.80;94565.00;;;;10433332;28;46745;-65
2022/03/26 16:03:10;;;;;;;6.15;2.95;;;18.30;28.30;20.80;94576.00;;;;10415936;28;46790;-67
2022/03/26 16:08:11;;;;;;;4.43;3.17;;;18.30;28.60;20.90;94568.00;;;;10429553;28;45453;-67
2022/03/26 16:13:12;;;;;;;5.22;2.80;;;18.50;28.10;20.90;94560.00;;;;10387559;28;48072;-65
2022/03/26 16:18:13;;;;;;;7.55;3.13;;;18.50;28.00;20.90;94561.00;;;;10408817;28;48223;-65
2022/03/26 16:23:15;;;;;;;4.85;3.30;;;18.50;28.10;20.90;94578.00;;;;10430664;28;47011;-66
2022/03/26 16:28:16;;;;;;;4.70;2.95;;;18.50;28.10;20.90;94570.00;;;;10456849;28;46429;-65
2022/03/26 16:33:16;;;;;;;4.80;3.35;;;18.50;28.10;20.90;94562.00;;;;10440408;28;45211;-63
2022/03/26 16:38:17;;;;;;;5.43;3.15;;;18.60;28.10;20.90;94571.00;;;;10438008;28;46174;-64
2022/03/26 16:43:18;;;;;;;4.47;2.85;;;18.60;28.20;20.90;94562.00;;;;10437890;28;47136;-63
2022/03/26 16:48:19;;;;;;;4.85;3.22;;;18.60;28.20;20.90;94576.00;;;;10405942;28;47262;-63
2022/03/26 16:53:19;;;;;;;4.63;2.83;;;18.60;28.20;21.00;94570.00;;;;10397969;28;45302;-64
2022/03/26 16:58:20;;;;;;;5.50;3.33;;;18.60;28.30;20.90;94575.00;;;;10397721;28;45390;-64
2022/03/26 17:03:22;;;;;;;6.82;3.00;;;18.50;28.20;20.90;94581.00;;;;10397698;28;46845;-63
2022/03/26 17:08:23;;;;;;;4.60;2.97;;;18.50;28.20;20.90;94592.00;;;;10397438;28;48131;-63
2022/03/26 17:13:24;;;;;;;4.15;2.70;;;18.50;28.30;21.00;94589.00;;;;10407845;28;46846;-63
2022/03/26 17:18:25;;;;;;;5.28;2.75;;;18.60;28.50;21.00;94589.00;;;;10412677;28;46658;-64
2022/03/26 17:23:25;;;;;;;3.67;2.53;;;18.60;28.50;21.00;94576.00;;;;10397157;28;45386;-64
2022/03/26 17:28:26;;;;;;;4.25;2.40;;;18.60;28.50;21.10;94584.00;;;;10396527;28;47162;-64
2022/03/26 17:33:27;;;;;;;3.25;2.03;;;18.60;28.50;21.10;94593.00;;;;10398103;28;46527;-63
2022/03/26 17:38:27;;;;;;;3.75;2.15;;;18.60;28.50;21.10;94591.00;;;;10398439;28;45149;-63
2022/03/26 17:43:28;;;;;;;3.25;2.05;;;18.60;28.50;21.10;94593.00;;;;10398247;28;45350;-63
2022/03/26 17:48:30;;;;;;;3.15;2.00;;;18.60;28.60;21.10;94609.00;;;;10396700;28;45450;-63
2022/03/26 17:53:31;;;;;;;3.97;2.05;;;18.60;28.50;21.10;94590.00;;;;10397876;28;46603;-63
2022/03/26 17:58:32;;;;;;;3.40;2.20;;;18.60;28.60;21.10;94609.00;;;;10396370;28;46917;-63
2022/03/26 18:03:34;;;;;;;4.60;2.70;;;18.60;28.60;21.00;94617.00;;;;10409882;28;47050;-63
2022/03/26 18:08:35;;;;;;;6.28;2.63;;;18.60;28.40;20.90;94620.00;;;;10408453;28;46920;-64
2022/03/26 18:13:35;;;;;;;4.15;2.38;;;18.50;28.30;20.90;94637.00;;;;10397234;28;45153;-65
2022/03/26 18:18:38;;;;;;;3.40;2.58;;;18.50;28.40;20.90;94637.00;;;;10395542;28;47461;-64
2022/03/26 18:23:39;;;;;;;4.72;2.30;;;18.50;28.40;20.90;94635.00;;;;10396357;28;45197;-65
2022/03/26 18:28:40;;;;;;;3.33;2.28;;;18.50;28.50;20.90;94654.00;;;;10396780;28;45370;-64
2022/03/26 18:33:44;;;;;;;3.95;2.78;;;18.40;28.40;20.80;94647.00;;;;10410844;28;47071;-64
2022/03/26 18:38:44;;;;;;;4.75;2.58;;;18.40;28.40;20.80;94650.00;;;;10411072;28;47193;-64
2022/03/26 18:43:46;;;;;;;4.32;2.70;;;18.40;28.40;20.80;94670.00;;;;10410935;28;45094;-65
2022/03/26 18:48:47;;;;;;;5.30;2.75;;;18.40;28.50;20.80;94666.00;;;;10411425;28;45265;-64
2022/03/26 18:53:47;;;;;;;3.42;2.35;;;18.40;28.40;20.80;94670.00;;;;10395778;28;45181;-64
2022/03/26 18:58:48;;;;;;;4.57;2.47;;;18.40;28.50;20.80;94667.00;;;;10436727;28;45480;-65
2022/03/26 19:03:48;;;;;;;4.82;2.80;;;18.40;28.40;20.80;94674.00;;;;10435713;28;47232;-64
2022/03/26 19:08:49;;;;;;;4.13;2.60;;;18.40;28.40;20.80;94657.00;;;;10403152;28;45426;-64
2022/03/26 19:13:50;;;;;;;4.00;2.67;;;18.40;28.40;20.80;94670.00;;;;10395279;28;45232;-64
2022/03/26 19:18:51;;;;;;;5.00;3.20;;;18.40;28.40;20.80;94670.00;;;;10416073;28;47179;-64
2022/03/26 19:23:54;;;;;;;4.35;2.83;;;18.40;28.40;20.80;94675.00;;;;10440357;28;47119;-64
2022/03/26 19:34:13;;;;;;;4.47;2.80;;;18.40;28.40;20.80;94669.00;;;;10393713;28;45178;-65
2022/03/26 19:39:14;;;;;;;5.00;3.00;;;18.40;28.30;20.80;94684.00;;;;10409803;28;46861;-64
2022/03/26 19:44:15;;;;;;;3.60;2.60;;;18.40;28.30;20.80;94679.00;;;;10427819;28;45655;-64
2022/03/26 19:49:17;;;;;;;3.65;2.58;;;18.40;28.40;20.80;94673.00;;;;10436855;28;46945;-64
2022/03/26 19:54:18;;;;;;;4.45;2.92;;;18.40;28.30;20.80;94697.00;;;;10425102;28;46913;-64
2022/03/26 19:59:19;;;;;;;5.63;3.20;;;18.40;28.30;20.80;94688.00;;;;10441959;28;46925;-64
2022/03/26 20:04:20;;;;;;;4.20;2.72;;;18.40;28.30;20.80;94679.00;;;;10447158;28;46698;-64
2022/03/26 20:09:21;;;;;;;3.88;2.78;;;18.40;28.30;20.80;94689.00;;;;10431901;28;45335;-65
2022/03/26 20:14:21;;;;;;;4.35;2.67;;;18.30;28.30;20.80;94705.00;;;;10436164;28;45184;-64
2022/03/26 20:19:23;;;;;;;4.60;3.13;;;18.40;28.30;20.80;94717.00;;;;10442256;28;46308;-64
2022/03/26 20:24:24;;;;;;;5.55;3.13;;;18.40;28.20;20.80;94704.00;;;;10423612;28;45423;-64
2022/03/26 20:29:25;;;;;;;6.05;3.38;;;18.40;28.20;20.80;94706.00;;;;10399328;28;47101;-64
2022/03/26 20:34:25;;;;;;;3.97;2.75;;;18.40;28.10;20.80;94710.00;;;;10408951;28;45477;-64
2022/03/26 20:39:26;;;;;;;3.92;2.90;;;18.40;28.20;20.80;94710.00;;;;10454435;22;45974;-63
2022/03/26 20:44:27;;;;;;;4.47;2.97;;;18.40;28.10;20.80;94727.00;;;;10375434;28;45400;-63
2022/03/26 20:49:28;;;;;;;4.68;3.08;;;18.40;28.10;20.80;94709.00;;;;10378234;28;46202;-63
2022/03/26 20:54:28;;;;;;;3.97;3.03;;;18.40;28.10;20.80;94722.00;;;;10377022;28;47535;-63
2022/03/26 20:59:29;;;;;;;3.97;2.85;;;18.40;28.10;20.80;94731.00;;;;10379070;28;47102;-63
2022/03/26 21:04:30;;;;;;;4.65;3.08;;;18.30;28.00;20.80;94724.00;;;;10414369;28;46805;-63
2022/03/26 21:09:30;;;;;;;4.65;3.08;;;18.40;28.10;20.70;94729.00;;;;10413326;28;46574;-63
2022/03/26 21:14:31;;;;;;;4.80;3.00;;;18.30;28.00;20.70;94735.00;;;;10397089;28;46900;-63
2022/03/26 21:19:33;;;;;;;4.55;3.10;;;18.30;28.00;20.70;94749.00;;;;10395840;28;46896;-63
2022/03/26 21:29:53;;;;;;;3.83;2.90;;;18.30;28.10;20.70;94752.00;;;;10410916;28;45182;-63
2022/03/26 21:34:53;;;;;;;5.55;3.00;;;18.20;28.00;20.70;94756.00;;;;10396251;28;47522;-63
2022/03/26 21:39:54;;;;;;;4.38;2.90;;;18.20;28.10;20.70;94742.00;;;;10396755;28;45518;-63
2022/03/26 21:44:55;;;;;;;4.95;2.95;;;18.20;28.60;20.60;94755.00;;;;10396459;28;46162;-63
2022/03/26 21:49:56;;;;;;;3.50;2.53;;;18.20;28.20;20.60;94752.00;;;;10412590;28;45495;-63
2022/03/26 21:54:56;;;;;;;4.30;2.50;;;18.20;28.20;20.60;94748.00;;;;10396865;28;45350;-63
2022/03/26 21:59:57;;;;;;;4.47;2.90;;;18.20;28.20;20.60;94741.00;;;;10412100;28;46297;-63
2022/03/26 22:04:58;;;;;;;4.05;3.00;;;18.20;28.30;20.60;94758.00;;;;10412302;28;45177;-63
2022/03/26 22:09:59;;;;;;;3.83;2.70;;;18.20;28.40;20.50;94756.00;;;;10411644;28;45757;-63
2022/03/26 22:15:00;;;;;;;5.32;2.83;;;18.10;28.40;20.50;94752.00;;;;10411601;28;46533;-63
2022/03/26 22:20:03;;;;;;;4.13;2.50;;;18.10;28.40;20.50;94746.00;;;;10411726;28;45511;-62
2022/03/26 22:25:06;;;;;;;5.28;2.67;;;18.10;28.40;20.50;94754.00;;;;10411332;28;45985;-63
2022/03/26 22:30:10;;;;;;;4.32;2.50;;;18.00;28.40;20.50;94748.00;;;;10410667;28;45212;-63
2022/03/26 22:35:11;;;;;;;4.88;2.47;;;18.00;28.40;20.40;94739.00;;;;10411336;28;46368;-63
2022/03/26 22:40:21;;;;;;;3.97;2.60;;;18.00;28.50;20.40;94746.00;;;;10410343;28;45572;-63